Archival Weather

Norman Y Mineta San Jose Intl

San Jose, California (KSJC)

Report from: Sunday, February 18, 2024 9:43 PM PST
Current time: Thursday, June 20, 2024 11:30 PM PDT

Current weather – Weather history – Daily summaries
Weather forecast

Present weatherHeavy rain, mist
Temperature15.6°C (60.1°F)
Dew point13.3°C (55.9°F)
Winds 5 kts (2.6 m/s, 5.8 mph) South-Southwest (210°)
Visibility1.5 mi. (2.4 km)
Clouds Scattered clouds 2,200 ft. (671 m)
Ceiling: Broken clouds 3,000 ft. (914 m)
Overcast 4,200 ft. (1,280 m)
Altimeter29.76 in.Hg (1008 mB)
Precipitiation0.25 in. (6 mm)
Precip. events Rain began 4:59 AM
Relative humidity86 %
Density altitude469 ft. (143 m)
Remarks Automated weather observing station with precipitation discriminator
Flight conditions Instrument Meteorological Conditions
Raw dataKSJC 190543Z 21005KT 1 1/2SM +RA BR SCT022 BKN030 OVC042 16/13 A2976 RMK AO2 RAB0459 P0025 T01560133
An error has occurred. This application may no longer respond until reloaded. Reload 🗙